Terminal Aerodrome Forecast
Issued by NWS

Home | Current Version | Previous Version | Text Only | Print | Product List | Glossary Off
Versions: 1 2 3 4 5 6 7 8 9 10 11 12 13 14 15 16 17 18 19

879
FTUS43 KMPX 160535
TAFRNH
TAF
KRNH 160535Z 1606/1706 18005KT P6SM BKN250
     FM162000 VRB03KT P6SM SCT040 BKN120
     FM162200 08004KT P6SM SCT030 OVC060
     FM170200 05004KT 4SM -FZRASN BR SCT015 OVC025=

USA.gov is the U.S. government's official web portal to all federal, state and local government web resources and services.